createdAt,value
2023-03-02T00:01:48.588Z,4.20
2023-03-02T00:04:24.684Z,4.20
2023-03-02T00:06:53.100Z,4.30
2023-03-02T00:09:20.078Z,4.20
2023-03-02T00:11:47.082Z,4.30
2023-03-02T00:14:14.104Z,4.30
2023-03-02T00:16:41.068Z,4.30
2023-03-02T00:19:08.155Z,4.30
2023-03-02T00:21:35.188Z,4.20
2023-03-02T00:24:02.337Z,4.20
2023-03-02T00:26:29.278Z,4.20
2023-03-02T00:28:56.305Z,4.20
2023-03-02T00:31:23.354Z,4.20
2023-03-02T00:33:51.331Z,4.20
2023-03-02T00:36:19.371Z,4.20
2023-03-02T00:38:46.475Z,4.20
2023-03-02T00:41:14.133Z,4.20
2023-03-02T00:43:41.500Z,4.20
2023-03-02T00:46:25.961Z,4.20
2023-03-02T00:49:12.749Z,4.20
2023-03-02T00:51:46.381Z,4.30
2023-03-02T00:54:13.312Z,4.30
2023-03-02T00:56:40.519Z,4.40
2023-03-02T00:59:29.109Z,4.40
2023-03-02T01:02:09.140Z,4.40
2023-03-02T01:04:38.057Z,4.40
2023-03-02T01:07:08.174Z,4.40
2023-03-02T01:09:35.301Z,4.40
2023-03-02T01:12:02.573Z,4.40
2023-03-02T01:14:29.601Z,4.40
2023-03-02T01:16:56.580Z,4.40
2023-03-02T01:19:23.729Z,4.40
2023-03-02T01:21:50.711Z,4.40
2023-03-02T01:24:17.932Z,4.40
2023-03-02T01:26:45.153Z,4.40
2023-03-02T01:29:12.284Z,4.40
2023-03-02T01:31:39.590Z,4.40
2023-03-02T01:34:06.877Z,4.40
2023-03-02T01:36:46.794Z,4.40
2023-03-02T01:39:27.045Z,4.40
2023-03-02T01:41:58.730Z,4.50
2023-03-02T01:44:38.310Z,4.50
2023-03-02T01:47:13.909Z,4.50
2023-03-02T01:50:00.205Z,4.50
2023-03-02T01:52:34.554Z,4.50
2023-03-02T01:55:04.124Z,4.50
2023-03-02T01:57:33.049Z,4.50
2023-03-02T02:00:02.325Z,4.50
2023-03-02T02:02:42.059Z,4.50
2023-03-02T02:05:30.906Z,4.50
2023-03-02T02:08:05.391Z,4.50
2023-03-02T02:10:33.838Z,4.50
2023-03-02T02:13:01.356Z,4.50
2023-03-02T02:15:28.480Z,4.50
2023-03-02T02:17:55.745Z,4.50
2023-03-02T02:20:28.731Z,4.50
2023-03-02T02:22:58.626Z,4.40
2023-03-02T02:25:40.031Z,4.50
2023-03-02T02:28:11.070Z,4.40
2023-03-02T02:30:39.348Z,4.40
2023-03-02T02:33:07.409Z,4.40
2023-03-02T02:35:38.721Z,4.40
2023-03-02T02:38:07.071Z,4.40
2023-03-02T02:40:48.964Z,4.40
2023-03-02T02:43:35.953Z,4.30
2023-03-02T02:46:23.108Z,4.30
2023-03-02T02:49:03.564Z,4.30
2023-03-02T02:51:49.929Z,4.30
2023-03-02T02:54:29.981Z,4.30
2023-03-02T02:57:17.856Z,4.30
2023-03-02T03:00:01.073Z,4.30
2023-03-02T03:02:49.878Z,4.20
2023-03-02T03:05:29.972Z,4.30
2023-03-02T03:08:37.930Z,4.30
2023-03-02T03:11:27.186Z,4.30
2023-03-02T03:14:23.883Z,4.30
2023-03-02T03:17:04.318Z,4.30
2023-03-02T03:19:52.984Z,4.30
2023-03-02T03:22:33.018Z,4.30
2023-03-02T03:25:28.950Z,4.30
2023-03-02T03:28:08.993Z,4.30
2023-03-02T03:31:02.987Z,4.30
2023-03-02T03:33:49.892Z,4.20
2023-03-02T03:36:36.958Z,4.20
2023-03-02T03:39:11.781Z,4.20
2023-03-02T03:41:38.980Z,4.10
2023-03-02T03:44:07.373Z,4.00
2023-03-02T03:46:36.757Z,4.00
2023-03-02T03:49:04.163Z,3.90
2023-03-02T03:51:35.505Z,3.90
2023-03-02T03:54:05.701Z,3.90
2023-03-02T03:56:38.001Z,3.90
2023-03-02T03:59:07.319Z,3.90
2023-03-02T04:01:46.644Z,3.90
2023-03-02T04:04:19.860Z,3.80
2023-03-02T04:06:47.008Z,3.80
2023-03-02T04:09:15.633Z,3.80
2023-03-02T04:11:52.944Z,3.80
2023-03-02T04:14:34.038Z,3.80
2023-03-02T04:17:07.763Z,3.80
2023-03-02T04:19:38.310Z,3.90
2023-03-02T04:22:05.913Z,3.90
2023-03-02T04:24:33.771Z,3.90
2023-03-02T04:27:03.089Z,3.90
2023-03-02T04:29:32.480Z,3.90
2023-03-02T04:32:01.233Z,3.90
2023-03-02T04:34:29.732Z,3.90
2023-03-02T04:36:56.841Z,3.90
2023-03-02T04:39:23.847Z,4.00
2023-03-02T04:41:52.774Z,4.00
2023-03-02T04:44:19.926Z,4.00
2023-03-02T04:46:47.764Z,4.10
2023-03-02T04:49:15.843Z,4.10
2023-03-02T04:51:44.309Z,4.10
2023-03-02T04:54:13.866Z,4.10
2023-03-02T04:56:40.831Z,4.10
2023-03-02T04:59:07.749Z,4.20
2023-03-02T05:01:34.715Z,4.10
2023-03-02T05:04:03.129Z,4.20
2023-03-02T05:06:30.584Z,4.10
2023-03-02T05:08:59.968Z,4.20
2023-03-02T05:11:27.953Z,4.20
2023-03-02T05:13:56.439Z,4.20
2023-03-02T05:16:24.316Z,4.30
2023-03-02T05:18:51.617Z,4.30
2023-03-02T05:21:18.913Z,4.30
2023-03-02T05:23:46.008Z,4.30
2023-03-02T05:26:13.506Z,4.30
2023-03-02T05:28:40.670Z,4.30
2023-03-02T05:31:07.608Z,4.30
2023-03-02T05:33:55.113Z,4.30
2023-03-02T05:36:42.048Z,4.30
2023-03-02T05:39:15.825Z,4.40
2023-03-02T05:41:42.840Z,4.40
2023-03-02T05:44:12.733Z,4.40
2023-03-02T05:46:40.727Z,4.40
2023-03-02T05:49:07.780Z,4.40
2023-03-02T05:51:34.882Z,4.40
2023-03-02T05:54:06.694Z,4.50
2023-03-02T05:56:53.079Z,4.50
2023-03-02T05:59:26.722Z,4.50
2023-03-02T06:01:59.066Z,4.50
2023-03-02T06:04:26.393Z,4.60
2023-03-02T06:06:53.302Z,4.60
2023-03-02T06:09:20.499Z,4.60
2023-03-02T06:11:47.798Z,4.70
2023-03-02T06:14:15.134Z,4.70
2023-03-02T06:16:42.263Z,4.70
2023-03-02T06:19:09.254Z,4.80
2023-03-02T06:21:36.367Z,4.80
2023-03-02T06:24:03.631Z,4.80
2023-03-02T06:26:30.905Z,4.90
2023-03-02T06:28:58.794Z,4.90
2023-03-02T06:31:26.031Z,4.90
2023-03-02T06:33:52.994Z,5.00
2023-03-02T06:36:20.078Z,5.00
2023-03-02T06:38:47.172Z,5.00
2023-03-02T06:41:16.195Z,5.00
2023-03-02T06:43:43.331Z,5.10
2023-03-02T06:46:10.262Z,5.10
2023-03-02T06:48:37.544Z,5.10
2023-03-02T06:51:04.628Z,5.10
2023-03-02T06:53:31.529Z,5.10
2023-03-02T06:55:58.518Z,5.10
2023-03-02T06:58:27.944Z,5.20
2023-03-02T07:00:54.893Z,5.20
2023-03-02T07:03:22.146Z,5.20
2023-03-02T07:05:50.151Z,5.30
2023-03-02T07:08:17.209Z,5.30
2023-03-02T07:10:44.184Z,5.40
2023-03-02T07:13:11.137Z,5.40
2023-03-02T07:15:48.266Z,5.50
2023-03-02T07:18:28.391Z,5.50
2023-03-02T07:20:55.680Z,5.50
2023-03-02T07:23:22.914Z,5.40
2023-03-02T07:25:49.914Z,5.40
2023-03-02T07:28:16.972Z,5.40
2023-03-02T07:30:44.031Z,5.40
2023-03-02T07:33:10.997Z,5.40
2023-03-02T07:35:38.483Z,5.40
2023-03-02T07:38:05.410Z,5.40
2023-03-02T07:40:32.494Z,5.50
2023-03-02T07:42:59.585Z,5.60
2023-03-02T07:45:26.793Z,5.60
2023-03-02T07:47:53.749Z,5.70
2023-03-02T07:50:20.969Z,5.70
2023-03-02T07:52:47.928Z,5.90
2023-03-02T07:55:28.209Z,6.10
2023-03-02T07:58:02.425Z,6.20
2023-03-02T08:00:29.473Z,6.10
2023-03-02T08:02:56.652Z,6.00
2023-03-02T08:05:23.742Z,5.90
2023-03-02T08:10:18.490Z,7.40
2023-03-02T08:12:45.782Z,9.30
2023-03-02T08:15:12.718Z,10.30
2023-03-02T08:17:39.729Z,10.50
2023-03-02T08:20:07.021Z,10.50
2023-03-02T08:22:47.219Z,10.60
2023-03-02T08:25:27.268Z,10.70
2023-03-02T08:28:16.211Z,10.80
2023-03-02T08:30:45.833Z,11.00
2023-03-02T08:33:12.741Z,11.00
2023-03-02T08:35:39.765Z,11.10
2023-03-02T08:38:06.794Z,11.40
2023-03-02T08:40:35.053Z,11.60
2023-03-02T08:43:02.488Z,11.70
2023-03-02T08:45:29.441Z,12.20
2023-03-02T08:47:56.536Z,12.70
2023-03-02T08:50:23.530Z,13.00
2023-03-02T08:52:50.435Z,13.00
2023-03-02T08:55:18.737Z,13.10
2023-03-02T08:57:45.817Z,13.30
2023-03-02T09:00:14.935Z,13.40
2023-03-02T09:02:42.286Z,13.70
2023-03-02T09:05:09.302Z,13.90
2023-03-02T09:07:36.219Z,14.20
2023-03-02T09:10:03.330Z,14.40
2023-03-02T09:12:30.790Z,14.70
2023-03-02T09:14:57.823Z,14.70
2023-03-02T09:17:24.748Z,14.30
2023-03-02T09:19:51.678Z,14.10
2023-03-02T09:22:18.704Z,14.20
2023-03-02T09:24:45.730Z,14.30
2023-03-02T09:27:19.460Z,14.40
2023-03-02T09:29:53.042Z,14.50
2023-03-02T09:32:20.218Z,14.80
2023-03-02T09:34:47.243Z,15.00
2023-03-02T09:37:14.269Z,15.40
2023-03-02T09:39:41.271Z,15.50
2023-03-02T09:42:14.523Z,15.70
2023-03-02T09:44:56.686Z,15.90
2023-03-02T09:47:36.379Z,16.20
2023-03-02T09:50:15.182Z,16.30
2023-03-02T09:52:45.572Z,17.20
2023-03-02T09:55:15.151Z,17.50
2023-03-02T09:57:42.957Z,17.20
2023-03-02T10:00:19.679Z,16.00
2023-03-02T10:02:49.507Z,14.80
2023-03-02T10:05:18.635Z,13.90
2023-03-02T10:07:46.190Z,13.10
2023-03-02T10:10:22.416Z,12.30
2023-03-02T10:13:08.274Z,11.80
2023-03-02T10:15:55.510Z,11.30
2023-03-02T10:18:31.194Z,11.00
2023-03-02T10:21:04.689Z,11.40
2023-03-02T10:23:50.575Z,11.60
2023-03-02T10:26:20.594Z,11.70
2023-03-02T10:28:52.196Z,11.70
2023-03-02T10:31:29.471Z,11.80
2023-03-02T10:34:02.035Z,12.00
2023-03-02T10:41:36.724Z,13.90
2023-03-02T10:44:06.445Z,14.00
2023-03-02T10:46:44.214Z,13.30
2023-03-02T10:49:39.434Z,12.30
2023-03-02T10:52:12.646Z,11.30
2023-03-02T10:54:39.908Z,11.00
2023-03-02T10:57:25.071Z,11.10
2023-03-02T10:59:52.611Z,11.60
2023-03-02T11:02:27.645Z,12.30
2023-03-02T11:04:58.950Z,12.40
2023-03-02T11:07:28.042Z,12.30
2023-03-02T11:10:17.464Z,12.00
2023-03-02T11:12:48.428Z,12.00
2023-03-02T11:15:32.583Z,11.50
2023-03-02T11:18:19.559Z,11.40
2023-03-02T11:20:49.146Z,11.30
2023-03-02T11:23:16.402Z,11.40
2023-03-02T11:26:06.368Z,11.30
2023-03-02T11:28:46.020Z,11.50
2023-03-02T11:31:23.965Z,12.10
2023-03-02T11:34:17.642Z,11.70
2023-03-02T11:36:51.113Z,11.00
2023-03-02T11:39:20.806Z,10.40
2023-03-02T11:41:47.821Z,10.90
2023-03-02T11:44:17.596Z,11.60
2023-03-02T11:46:47.148Z,11.90
2023-03-02T11:49:16.567Z,12.40
2023-03-02T11:51:57.886Z,13.30
2023-03-02T11:54:52.432Z,14.80
2023-03-02T11:57:42.442Z,15.20
2023-03-02T12:00:34.713Z,14.50
2023-03-02T12:03:41.541Z,13.90
2023-03-02T12:06:15.138Z,13.00
2023-03-02T12:08:43.465Z,12.30
2023-03-02T12:11:19.417Z,12.50
2023-03-02T12:14:06.712Z,12.40
2023-03-02T12:16:38.366Z,12.00
2023-03-02T12:19:25.650Z,11.30
2023-03-02T12:21:57.469Z,10.50
2023-03-02T12:24:25.870Z,9.90
2023-03-02T12:27:06.444Z,9.30
2023-03-02T12:29:48.097Z,8.80
2023-03-02T12:32:24.086Z,8.50
2023-03-02T12:34:54.062Z,8.30
2023-03-02T12:37:25.005Z,8.10
2023-03-02T12:40:04.396Z,7.90
2023-03-02T12:42:31.343Z,7.80
2023-03-02T12:45:16.730Z,7.70
2023-03-02T12:47:45.907Z,7.70
2023-03-02T12:50:32.326Z,7.60
2023-03-02T12:53:00.339Z,7.50
2023-03-02T12:55:28.577Z,7.40
2023-03-02T12:58:10.495Z,7.30
2023-03-02T13:00:50.128Z,7.20
2023-03-02T13:03:17.187Z,7.20
2023-03-02T13:05:44.176Z,7.10
2023-03-02T13:08:14.166Z,7.10
2023-03-02T13:10:43.176Z,7.10
2023-03-02T13:13:21.277Z,7.00
2023-03-02T13:15:49.776Z,7.10
2023-03-02T13:18:17.336Z,7.10
2023-03-02T13:20:44.369Z,7.10
2023-03-02T13:23:15.652Z,7.00
2023-03-02T13:25:48.876Z,7.00
2023-03-02T13:28:27.681Z,7.00
2023-03-02T13:31:02.694Z,6.90
2023-03-02T13:33:30.925Z,6.90
2023-03-02T13:35:58.165Z,6.80
2023-03-02T13:38:37.089Z,6.80
2023-03-02T13:41:04.279Z,6.80
2023-03-02T13:43:38.748Z,6.80
2023-03-02T13:46:12.748Z,6.80
2023-03-02T13:49:14.467Z,6.80
2023-03-02T13:51:46.393Z,6.80
2023-03-02T13:54:24.361Z,6.80
2023-03-02T13:56:51.800Z,6.80
2023-03-02T13:59:19.655Z,6.80
2023-03-02T14:01:46.671Z,6.80
2023-03-02T14:04:23.402Z,6.80
2023-03-02T14:06:51.854Z,6.80
2023-03-02T14:09:19.273Z,6.80
2023-03-02T14:11:47.834Z,6.80
2023-03-02T14:14:17.194Z,6.70
2023-03-02T14:16:44.373Z,6.70
2023-03-02T14:19:18.414Z,6.70
2023-03-02T14:21:46.666Z,6.70
2023-03-02T14:24:13.690Z,6.70
2023-03-02T14:26:43.725Z,6.70
2023-03-02T14:29:17.071Z,6.70
2023-03-02T14:31:44.126Z,6.70
2023-03-02T14:34:14.741Z,6.60
2023-03-02T14:36:43.213Z,6.70
2023-03-02T14:39:30.546Z,6.70
2023-03-02T14:41:57.664Z,6.60
2023-03-02T14:44:32.328Z,6.60
2023-03-02T14:47:19.817Z,6.70
2023-03-02T14:49:59.897Z,6.70
2023-03-02T14:52:38.898Z,6.70
2023-03-02T14:55:07.887Z,6.70
2023-03-02T14:57:36.422Z,6.60
2023-03-02T15:00:03.871Z,6.60
2023-03-02T15:02:30.960Z,6.60
2023-03-02T15:04:57.970Z,6.70
2023-03-02T15:07:26.004Z,6.60
2023-03-02T15:09:53.098Z,6.60
2023-03-02T15:12:20.187Z,6.60
2023-03-02T15:14:51.885Z,6.60
2023-03-02T15:17:25.362Z,6.60
2023-03-02T15:19:52.266Z,6.60
2023-03-02T15:22:19.292Z,6.60
2023-03-02T15:24:46.289Z,6.50
2023-03-02T15:27:13.356Z,6.50
2023-03-02T15:29:43.090Z,6.50
2023-03-02T15:32:10.055Z,6.40
2023-03-02T15:34:37.194Z,6.40
2023-03-02T15:37:04.146Z,6.30
2023-03-02T15:39:31.123Z,6.30
2023-03-02T15:41:58.147Z,6.30
2023-03-02T15:44:25.304Z,6.20
2023-03-02T15:46:55.912Z,6.20
2023-03-02T15:49:24.937Z,6.20
2023-03-02T15:51:58.859Z,6.20
2023-03-02T15:54:32.351Z,6.10
2023-03-02T15:56:59.365Z,6.10
2023-03-02T15:59:27.771Z,6.00
2023-03-02T16:01:59.480Z,6.00
2023-03-02T16:04:27.287Z,6.00
2023-03-02T16:06:55.140Z,6.00
2023-03-02T16:09:23.057Z,6.00
2023-03-02T16:11:50.682Z,6.00
2023-03-02T16:14:18.219Z,5.90
2023-03-02T16:16:53.030Z,5.90
2023-03-02T16:19:20.326Z,5.80
2023-03-02T16:21:47.924Z,5.80
2023-03-02T16:24:17.077Z,5.80
2023-03-02T16:26:44.959Z,5.80
2023-03-02T16:29:12.939Z,5.80
2023-03-02T16:31:42.576Z,5.80
2023-03-02T16:34:09.688Z,5.80
2023-03-02T16:36:37.990Z,5.80
2023-03-02T16:39:05.397Z,5.70
2023-03-02T16:41:32.513Z,5.70
2023-03-02T16:43:59.650Z,5.70
2023-03-02T16:46:27.834Z,5.70
2023-03-02T16:48:55.117Z,5.70
2023-03-02T16:51:22.126Z,5.70
2023-03-02T16:53:49.501Z,5.60
2023-03-02T16:56:16.771Z,5.60
2023-03-02T16:58:43.998Z,5.60
2023-03-02T17:01:12.487Z,5.60
2023-03-02T17:03:39.774Z,5.60
2023-03-02T17:06:07.762Z,5.50
2023-03-02T17:08:34.695Z,5.50
2023-03-02T17:11:02.371Z,5.50
2023-03-02T17:13:29.728Z,5.50
2023-03-02T17:15:57.307Z,5.50
2023-03-02T17:18:27.384Z,5.50
2023-03-02T17:20:55.776Z,5.40
2023-03-02T17:23:22.836Z,5.40
2023-03-02T17:25:49.979Z,5.30
2023-03-02T17:28:17.448Z,5.30
2023-03-02T17:30:44.555Z,5.30
2023-03-02T17:33:11.742Z,5.30
2023-03-02T17:35:38.694Z,5.20
2023-03-02T17:38:05.834Z,5.20
2023-03-02T17:40:32.869Z,5.20
2023-03-02T17:43:00.137Z,5.10
2023-03-02T17:45:28.444Z,5.10
2023-03-02T17:47:57.273Z,5.00
2023-03-02T17:50:25.227Z,5.00
2023-03-02T17:52:52.511Z,4.90
2023-03-02T17:55:19.869Z,4.90
2023-03-02T17:57:46.857Z,4.90
2023-03-02T18:00:27.912Z,4.90
2023-03-02T18:03:02.394Z,4.80
2023-03-02T18:05:29.359Z,4.90
2023-03-02T18:07:57.410Z,4.80
2023-03-02T18:10:24.623Z,4.80
2023-03-02T18:13:04.849Z,4.80
2023-03-02T18:15:36.549Z,4.80
2023-03-02T18:18:03.664Z,4.70
2023-03-02T18:20:30.741Z,4.70
2023-03-02T18:22:58.202Z,4.60
2023-03-02T18:25:25.317Z,4.50
2023-03-02T18:27:52.386Z,4.50
2023-03-02T18:30:22.960Z,4.50
2023-03-02T18:32:49.947Z,4.40
2023-03-02T18:35:17.410Z,4.40
2023-03-02T18:37:44.491Z,4.40
2023-03-02T18:40:12.306Z,4.30
2023-03-02T18:42:39.434Z,4.30
2023-03-02T18:45:07.258Z,4.30
2023-03-02T18:47:36.669Z,4.20
2023-03-02T18:50:04.767Z,4.20
2023-03-02T18:52:31.717Z,4.20
2023-03-02T18:54:58.818Z,4.20
2023-03-02T18:57:34.009Z,4.20
2023-03-02T19:00:27.385Z,4.20
2023-03-02T19:03:14.874Z,4.20
2023-03-02T19:06:02.006Z,4.20
2023-03-02T19:08:36.204Z,4.20
2023-03-02T19:11:04.598Z,4.20
2023-03-02T19:13:31.721Z,4.10
2023-03-02T19:15:59.044Z,4.10
2023-03-02T19:18:26.275Z,4.10
2023-03-02T19:20:54.530Z,4.10
2023-03-02T19:23:21.521Z,4.10
2023-03-02T19:25:48.491Z,4.10
2023-03-02T19:28:15.994Z,4.00
2023-03-02T19:30:43.448Z,4.00
2023-03-02T19:33:10.495Z,4.00
2023-03-02T19:35:38.133Z,4.00
2023-03-02T19:38:06.790Z,4.00
2023-03-02T19:40:34.579Z,4.00
2023-03-02T19:43:02.503Z,4.00
2023-03-02T19:45:33.440Z,4.00
2023-03-02T19:48:01.028Z,4.00
2023-03-02T19:50:28.611Z,4.00
2023-03-02T19:52:56.078Z,4.00
2023-03-02T19:55:26.986Z,4.00
2023-03-02T19:57:59.988Z,4.00
2023-03-02T20:00:29.301Z,4.00
2023-03-02T20:03:13.011Z,4.00
2023-03-02T20:05:53.120Z,4.10
2023-03-02T20:08:40.075Z,4.10
2023-03-02T20:11:22.595Z,4.00
2023-03-02T20:13:55.786Z,4.00
2023-03-02T20:16:23.250Z,4.00
2023-03-02T20:18:51.558Z,4.00
2023-03-02T20:21:18.896Z,4.00
2023-03-02T20:23:46.532Z,4.00
2023-03-02T20:26:13.502Z,3.90
2023-03-02T20:28:40.497Z,3.90
2023-03-02T20:31:09.023Z,3.90
2023-03-02T20:33:39.370Z,3.90
2023-03-02T20:36:06.510Z,3.90
2023-03-02T20:38:39.015Z,3.90
2023-03-02T20:41:06.854Z,3.90
2023-03-02T20:43:33.826Z,3.80
2023-03-02T20:46:00.755Z,3.80
2023-03-02T20:48:28.188Z,3.80
2023-03-02T20:50:55.844Z,3.80
2023-03-02T20:53:23.397Z,3.80
2023-03-02T20:55:50.426Z,3.80
2023-03-02T20:58:17.330Z,3.70
2023-03-02T21:00:57.995Z,3.70
2023-03-02T21:03:38.237Z,3.70
2023-03-02T21:06:12.502Z,3.70
2023-03-02T21:08:40.197Z,3.70
2023-03-02T21:11:08.093Z,3.70
2023-03-02T21:13:39.252Z,3.70
2023-03-02T21:16:09.694Z,3.70
2023-03-02T21:18:39.078Z,3.70
2023-03-02T21:21:06.281Z,3.60
2023-03-02T21:23:33.157Z,3.60
2023-03-02T21:26:00.093Z,3.60
2023-03-02T21:28:27.148Z,3.60
2023-03-02T21:30:54.197Z,3.60
2023-03-02T21:33:21.587Z,3.50
2023-03-02T21:35:48.648Z,3.50
2023-03-02T21:38:15.554Z,3.50
2023-03-02T21:40:45.982Z,3.50
2023-03-02T21:43:13.643Z,3.50
2023-03-02T21:45:40.633Z,3.50
2023-03-02T21:48:08.175Z,3.40
2023-03-02T21:50:37.552Z,3.40
2023-03-02T21:53:04.731Z,3.40
2023-03-02T21:55:31.938Z,3.40
2023-03-02T21:57:59.716Z,3.30
2023-03-02T22:00:28.337Z,3.30
2023-03-02T22:02:55.862Z,3.30
2023-03-02T22:05:29.296Z,3.30
2023-03-02T22:08:19.146Z,3.20
2023-03-02T22:10:52.757Z,3.30
2023-03-02T22:13:22.626Z,3.20
2023-03-02T22:15:50.426Z,3.30
2023-03-02T22:18:18.793Z,3.20
2023-03-02T22:20:47.247Z,3.20
2023-03-02T22:23:21.150Z,3.20
2023-03-02T22:25:52.581Z,3.20
2023-03-02T22:28:22.561Z,3.10
2023-03-02T22:30:51.110Z,3.10
2023-03-02T22:33:32.205Z,3.10
2023-03-02T22:36:18.334Z,3.10
2023-03-02T22:39:08.116Z,3.10
2023-03-02T22:41:48.210Z,3.10
2023-03-02T22:44:35.089Z,3.00
2023-03-02T22:47:26.340Z,3.10
2023-03-02T22:50:26.261Z,3.00
2023-03-02T22:53:07.297Z,3.00
2023-03-02T22:55:54.139Z,3.00
2023-03-02T22:58:43.303Z,3.00
2023-03-02T23:01:50.148Z,3.00
2023-03-02T23:04:24.669Z,3.00
2023-03-02T23:06:54.724Z,3.00
2023-03-02T23:09:23.806Z,3.00
2023-03-02T23:11:51.204Z,3.00
2023-03-02T23:14:23.959Z,2.90
2023-03-02T23:17:26.240Z,2.90
2023-03-02T23:20:06.579Z,3.00
2023-03-02T23:22:53.143Z,2.90
2023-03-02T23:25:40.166Z,2.90
2023-03-02T23:28:27.454Z,2.90
2023-03-02T23:31:21.273Z,2.90
2023-03-02T23:33:54.979Z,2.90
2023-03-02T23:36:22.114Z,2.90
2023-03-02T23:38:49.464Z,2.90
2023-03-02T23:41:16.623Z,2.90
2023-03-02T23:43:44.126Z,2.90
2023-03-02T23:46:14.422Z,2.90
2023-03-02T23:48:41.785Z,3.00
2023-03-02T23:51:09.083Z,3.10
2023-03-02T23:53:36.192Z,3.10
2023-03-02T23:56:03.251Z,3.10
2023-03-02T23:58:30.211Z,3.20
